»·PEaware :: SWA6566 KLAX-KLAS

SWA6566 :: KLAX-KLAS

FLIGHT INFORMATION

Flight Status: Arrived
Operator:
Southwest Airlines
More flights by this operator :: More flights under this callsign
Pilot: Merv A. (1555)
Aircraft: BOEING 737-700
(B737)
More flights by this aircraft type
Origin: KLAX Los Angeles Intl
United States
Destination: KLAS McCarran Intl
United States
More flights between these airports :: More routes between these airports
Route: +ORCKA2 MISEN KEPEC6
File this flight plan on PilotEdge
Remarks: rmk / custom time
Altitude:
(Current/Filed)
29,000ft
Speed:
(Current/Filed)
440kts
Departed: 12-Jan-18 05:39 PM
Arrived: 12-Jan-18 06:44 PM
Distance/Time
Traveled:
205nm/1:05
Distance/Time
To Go:
Arrived

Flight Plot

Page will automatically refresh every two minutes.

Flight plan parsing failed; only flown route is shown


Map Options




Map Legend


Flown Route
Filed Route
Departure Airport
Arrival Airport
Navaid (VOR, NDB)
Fix

Horizontal Profiles

Position Reports

Time Latitude Longitude Heading Altitude Ground
Speed
12-Jan-18 17:09 33.947043 -118.401946 93 134ft 0kts
12-Jan-18 17:10 33.947043 -118.401946 93 134ft 0kts
12-Jan-18 17:11 33.947043 -118.401946 93 134ft 0kts
12-Jan-18 17:12 33.947043 -118.401946 93 134ft 0kts
12-Jan-18 17:13 33.947043 -118.401946 93 134ft 0kts
12-Jan-18 17:14 33.947043 -118.401946 93 134ft 0kts
12-Jan-18 17:15 33.947043 -118.401946 93 134ft 0kts
12-Jan-18 17:16 33.947043 -118.401946 93 134ft 0kts
12-Jan-18 17:17 33.947043 -118.401946 93 134ft 0kts
12-Jan-18 17:18 33.947043 -118.401946 93 134ft 0kts
12-Jan-18 17:19 33.947043 -118.401946 93 134ft 0kts
12-Jan-18 17:20 33.947043 -118.401946 93 134ft 0kts
12-Jan-18 17:21 33.947043 -118.401946 93 134ft 0kts
12-Jan-18 17:22 33.947043 -118.401946 93 134ft 0kts
12-Jan-18 17:23 33.947043 -118.401946 93 134ft 0kts
12-Jan-18 17:24 33.947043 -118.401946 93 134ft 0kts
12-Jan-18 17:25 33.947043 -118.401946 93 134ft 0kts
12-Jan-18 17:26 33.947043 -118.401946 93 134ft 0kts
12-Jan-18 17:27 33.947043 -118.401946 93 134ft 0kts
12-Jan-18 17:28 33.947043 -118.401946 93 134ft 0kts
12-Jan-18 17:29 33.947043 -118.401946 93 134ft 0kts
12-Jan-18 17:30 33.947043 -118.401946 93 134ft 0kts
12-Jan-18 17:31 33.947043 -118.401946 93 134ft 0kts
12-Jan-18 17:32 33.947043 -118.401946 93 134ft 0kts
12-Jan-18 17:33 33.947043 -118.401946 93 134ft 0kts
12-Jan-18 17:34 33.947043 -118.401946 93 134ft 0kts
12-Jan-18 17:35 33.947043 -118.401946 93 134ft 0kts
12-Jan-18 17:36 33.947026 -118.402439 68 134ft 2kts
12-Jan-18 17:37 33.946775 -118.402609 352 134ft 0kts
12-Jan-18 17:38 33.946775 -118.402609 352 134ft 0kts
12-Jan-18 17:39 33.946775 -118.402609 352 134ft 0kts
12-Jan-18 17:40 33.947077 -118.402654 352 134ft 0kts
12-Jan-18 17:41 33.947902 -118.402789 346 134ft 8kts
12-Jan-18 17:42 33.949242 -118.401905 26 134ft 0kts
12-Jan-18 17:43 33.949244 -118.401903 26 134ft 0kts
12-Jan-18 17:44 33.950124 -118.402103 283 134ft 3kts
12-Jan-18 17:45 33.948584 -118.417402 262 212ft 139kts
12-Jan-18 17:46 33.943430 -118.468382 263 2507ft 175kts
12-Jan-18 17:47 33.935404 -118.542238 260 3979ft 265kts
12-Jan-18 17:48 33.874885 -118.580758 160 7231ft 289kts
12-Jan-18 17:49 33.842756 -118.502410 67 10315ft 290kts
12-Jan-18 17:50 33.903835 -118.444122 25 13382ft 294kts
12-Jan-18 17:51 33.972180 -118.374277 55 15337ft 364kts
12-Jan-18 17:52 34.025736 -118.267670 53 18029ft 389kts
12-Jan-18 17:53 34.088903 -118.157575 53 20645ft 408kts
12-Jan-18 17:54 34.154163 -118.041943 53 23032ft 423kts
12-Jan-18 17:55 34.221596 -117.922503 52 25098ft 438kts
12-Jan-18 17:56 34.290674 -117.799049 52 26890ft 452kts
12-Jan-18 17:57 34.361481 -117.672634 50 28992ft 451kts
12-Jan-18 17:58 34.435523 -117.549006 49 29256ft 449kts
12-Jan-18 17:59 34.508258 -117.426697 49 29300ft 449kts
12-Jan-18 18:00 34.581589 -117.303269 49 29326ft 448kts
12-Jan-18 18:01 34.654212 -117.180736 49 29329ft 447kts
12-Jan-18 18:02 34.726503 -117.058059 49 29334ft 446kts
12-Jan-18 18:03 34.798956 -116.935024 49 29321ft 446kts
12-Jan-18 18:04 34.870495 -116.812440 49 29310ft 445kts
12-Jan-18 18:05 34.941203 -116.690276 50 29275ft 438kts
12-Jan-18 18:06 35.008705 -116.570757 50 27375ft 421kts
12-Jan-18 18:07 35.074132 -116.454207 50 25250ft 409kts
12-Jan-18 18:08 35.145092 -116.349555 39 23515ft 393kts
12-Jan-18 18:09 35.221267 -116.254546 40 22053ft 387kts
12-Jan-18 18:10 35.295215 -116.161591 40 20639ft 379kts
12-Jan-18 18:11 35.368083 -116.069887 39 19238ft 370kts
12-Jan-18 18:12 35.439040 -115.980495 39 17880ft 361kts
12-Jan-18 18:13 35.506064 -115.895983 39 16699ft 335kts
12-Jan-18 18:14 35.569950 -115.814782 40 15045ft 320kts
12-Jan-18 18:15 35.629181 -115.739188 40 13901ft 300kts
12-Jan-18 18:16 35.687518 -115.667042 32 13004ft 288kts
12-Jan-18 18:17 35.753418 -115.610764 29 13009ft 294kts
12-Jan-18 18:18 35.821199 -115.553727 29 12375ft 288kts
12-Jan-18 18:19 35.884497 -115.500090 30 11805ft 268kts
12-Jan-18 18:20 35.944756 -115.448982 30 11182ft 265kts
12-Jan-18 18:21 36.003991 -115.398441 30 11013ft 259kts
12-Jan-18 18:22 36.029649 -115.319104 95 10377ft 281kts
12-Jan-18 18:23 36.020337 -115.226300 91 9277ft 265kts
12-Jan-18 18:24 36.014098 -115.137254 91 8470ft 258kts
12-Jan-18 18:25 36.008542 -115.050312 91 7996ft 245kts
12-Jan-18 18:26 36.003699 -114.968581 91 8012ft 237kts
12-Jan-18 18:27 35.998759 -114.887607 91 8011ft 238kts
12-Jan-18 18:28 35.993704 -114.805788 91 8009ft 238kts
12-Jan-18 18:29 35.988382 -114.724726 91 8008ft 237kts
12-Jan-18 18:30 35.983158 -114.643857 85 8000ft 235kts
12-Jan-18 18:31 36.029037 -114.600595 8 8011ft 224kts
12-Jan-18 18:32 36.069190 -114.649231 275 8021ft 239kts
12-Jan-18 18:33 36.072950 -114.729316 274 7961ft 230kts
12-Jan-18 18:34 36.073853 -114.807946 272 6898ft 218kts
12-Jan-18 18:35 36.073874 -114.878316 272 5853ft 198kts
12-Jan-18 18:36 36.073822 -114.945613 271 4987ft 193kts
12-Jan-18 18:37 36.073768 -115.008878 271 4017ft 176kts
12-Jan-18 18:38 36.073716 -115.062842 271 3183ft 145kts
12-Jan-18 18:39 36.073680 -115.112539 270 2426ft 144kts
12-Jan-18 18:40 36.076903 -115.166775 303 3620ft 177kts
12-Jan-18 18:41 36.113331 -115.163230 60 4602ft 193kts
12-Jan-18 18:42 36.116268 -115.084526 82 5000ft 209kts
12-Jan-18 18:43 36.120927 -115.025259 82 4998ft 205kts
12-Jan-18 18:44 36.126103 -114.944493 101 4959ft 191kts
12-Jan-18 18:45 36.090117 -114.929199 198 4198ft 181kts
12-Jan-18 18:46 36.073842 -114.993624 270 4044ft 180kts
12-Jan-18 18:47 36.073739 -115.043893 271 3462ft 161kts
12-Jan-18 18:48 36.073759 -115.102808 270 2565ft 143kts
12-Jan-18 18:49 36.073650 -115.140916 269 2189ft 75kts
12-Jan-18 18:50 36.074736 -115.150667 301 2188ft 9kts
12-Jan-18 18:51 36.074812 -115.150812 303 2188ft 1kts
12-Jan-18 18:52 36.076280 -115.151891 333 2188ft 9kts
12-Jan-18 18:53 36.078034 -115.151168 93 2188ft 12kts
12-Jan-18 18:54 36.078487 -115.147772 68 2188ft 9kts
12-Jan-18 18:55 36.079193 -115.144810 2 2188ft 9kts
12-Jan-18 18:56 36.080113 -115.145587 279 2188ft 0kts
12-Jan-18 18:57 36.080113 -115.145587 279 2188ft 0kts

Navigation Log

Ident Type
Flight plan parsing failed, navigation log unavailable